Time;durP1;ratioP1;P1;durP2;ratioP2;P2;SDS_P1;SDS_P2;PMS_P1;PMS_P2;Temp;Humidity;BMP_temperature;BMP_pressure;BME280_temperature;BME280_humidity;BME280_pressure;Samples;Min_cycle;Max_cycle;Signal;HPM_P1;HPM_P2
2023/02/24 00:02:57;;;;;;;19.25;9.88;;;;;;;;;;10403650;28;20032;-77
2023/02/24 00:07:58;;;;;;;24.42;11.68;;;;;;;;;;10370574;28;20049;-76
2023/02/24 00:12:58;;;;;;;23.60;10.23;;;;;;;;;;10385563;28;20021;-76
2023/02/24 00:18:05;;;;;;;19.13;9.03;;;;;;;;;;10386195;28;20029;-71
2023/02/24 00:23:08;;;;;;;19.20;10.02;;;;;;;;;;10386094;28;20272;-78
2023/02/24 00:28:08;;;;;;;21.05;9.23;;;;;;;;;;10388626;28;20057;-78
2023/02/24 00:33:11;;;;;;;21.43;9.77;;;;;;;;;;10400052;28;20040;-75
2023/02/24 00:38:12;;;;;;;18.70;10.32;;;;;;;;;;10385559;28;20283;-77
2023/02/24 00:43:12;;;;;;;23.98;11.82;;;;;;;;;;10385262;28;20021;-79
2023/02/24 00:48:14;;;;;;;21.35;9.65;;;;;;;;;;10384731;28;20026;-79
2023/02/24 00:53:17;;;;;;;15.68;9.07;;;;;;;;;;10401668;28;20026;-78
2023/02/24 00:58:19;;;;;;;18.95;9.55;;;;;;;;;;10385136;28;20024;-80
2023/02/24 01:03:19;;;;;;;18.90;9.50;;;;;;;;;;10387244;28;20052;-80
2023/02/24 01:08:22;;;;;;;20.90;10.73;;;;;;;;;;10383932;28;20524;-79
2023/02/24 01:13:22;;;;;;;19.08;10.20;;;;;;;;;;10384588;28;20025;-76
2023/02/24 01:18:22;;;;;;;19.27;10.20;;;;;;;;;;10368509;28;20014;-77
2023/02/24 01:23:23;;;;;;;14.32;9.48;;;;;;;;;;10383609;28;20036;-79
2023/02/24 01:28:23;;;;;;;17.67;9.40;;;;;;;;;;10383964;28;20460;-78
2023/02/24 01:33:24;;;;;;;19.67;10.73;;;;;;;;;;10405684;28;20585;-77
2023/02/24 01:38:24;;;;;;;18.98;11.63;;;;;;;;;;10402681;28;20483;-76
2023/02/24 01:43:24;;;;;;;20.53;9.90;;;;;;;;;;10426753;28;20073;-78
2023/02/24 01:48:25;;;;;;;21.53;11.27;;;;;;;;;;10378955;28;20021;-77
2023/02/24 01:53:25;;;;;;;17.17;8.48;;;;;;;;;;10410046;28;20025;-76
2023/02/24 01:58:27;;;;;;;21.35;8.68;;;;;;;;;;10386098;28;20024;-74
2023/02/24 02:03:33;;;;;;;13.55;7.60;;;;;;;;;;10400016;28;20060;-75
2023/02/24 02:08:35;;;;;;;18.35;8.68;;;;;;;;;;10412545;28;20041;-75
2023/02/24 02:13:38;;;;;;;13.65;8.15;;;;;;;;;;10409717;28;20083;-75
2023/02/24 02:18:47;;;;;;;14.27;7.72;;;;;;;;;;10451059;28;20032;-77
2023/02/24 02:23:57;;;;;;;15.52;8.55;;;;;;;;;;10416637;28;20159;-74
2023/02/24 02:29:15;;;;;;;21.13;9.15;;;;;;;;;;10397728;28;20033;-80
2023/02/24 02:34:34;;;;;;;16.85;7.68;;;;;;;;;;10396664;28;20021;-80
2023/02/24 02:39:47;;;;;;;15.57;8.07;;;;;;;;;;10404354;28;20014;-79
2023/02/24 02:44:54;;;;;;;11.55;6.88;;;;;;;;;;10389124;28;20049;-79
2023/02/24 02:50:17;;;;;;;14.03;6.83;;;;;;;;;;10408647;28;20017;-75
2023/02/24 02:55:47;;;;;;;15.02;7.35;;;;;;;;;;10425388;28;20033;-75
2023/02/24 03:00:57;;;;;;;;;;;;;;;;;;10405573;28;20036;-77
2023/02/24 03:06:00;;;;;;;14.00;7.05;;;;;;;;;;10393951;28;20426;-78
2023/02/24 03:11:02;;;;;;;15.35;7.70;;;;;;;;;;10391021;28;20053;-78
2023/02/24 03:16:05;;;;;;;15.02;7.10;;;;;;;;;;10389780;28;20087;-79
2023/02/24 03:21:11;;;;;;;10.10;6.40;;;;;;;;;;10376101;28;20063;-79
2023/02/24 03:26:17;;;;;;;11.20;6.10;;;;;;;;;;10389016;28;20511;-80
2023/02/24 03:31:29;;;;;;;12.43;5.40;;;;;;;;;;10388637;28;20078;-74
2023/02/24 03:36:30;;;;;;;11.70;6.03;;;;;;;;;;10391019;28;20048;-79
2023/02/24 03:41:37;;;;;;;14.40;6.07;;;;;;;;;;10363368;28;20049;-77
2023/02/24 03:46:41;;;;;;;12.67;5.77;;;;;;;;;;10349614;28;20029;-77
2023/02/24 03:51:53;;;;;;;12.45;6.07;;;;;;;;;;10388113;28;20025;-78
2023/02/24 03:57:08;;;;;;;13.35;5.63;;;;;;;;;;10403830;28;20067;-76
2023/02/24 04:02:16;;;;;;;12.52;5.82;;;;;;;;;;10394768;28;20025;-78
2023/02/24 04:07:25;;;;;;;11.43;6.32;;;;;;;;;;10389912;28;20045;-82
2023/02/24 04:12:28;;;;;;;12.27;5.43;;;;;;;;;;10388719;28;20056;-75
2023/02/24 04:17:30;;;;;;;7.97;4.85;;;;;;;;;;10387019;28;20063;-80
2023/02/24 04:22:31;;;;;;;8.20;4.85;;;;;;;;;;10366625;28;20105;-79
2023/02/24 04:27:32;;;;;;;8.80;3.95;;;;;;;;;;10389003;28;20491;-72
2023/02/24 04:32:33;;;;;;;11.23;5.07;;;;;;;;;;10384958;28;20108;-75
2023/02/24 04:37:38;;;;;;;14.03;4.90;;;;;;;;;;10384110;28;20029;-81
2023/02/24 04:42:47;;;;;;;14.48;6.32;;;;;;;;;;10374275;28;20268;-77
2023/02/24 04:47:50;;;;;;;11.77;5.15;;;;;;;;;;10381750;28;20041;-77
2023/02/24 04:52:50;;;;;;;15.65;4.97;;;;;;;;;;10394490;28;20510;-74
2023/02/24 04:57:54;;;;;;;14.38;5.75;;;;;;;;;;10390463;28;20037;-79
2023/02/24 05:02:55;;;;;;;10.30;5.72;;;;;;;;;;10385703;28;20389;-77
2023/02/24 05:08:01;;;;;;;13.40;5.22;;;;;;;;;;10379829;28;20049;-77
2023/02/24 05:13:02;;;;;;;12.60;5.55;;;;;;;;;;10377140;28;20431;-72
2023/02/24 05:18:12;;;;;;;10.95;5.07;;;;;;;;;;10382817;28;20029;-74
2023/02/24 05:23:13;;;;;;;23.08;6.25;;;;;;;;;;10398496;28;20017;-78
2023/02/24 05:28:15;;;;;;;10.95;6.10;;;;;;;;;;10389419;28;20034;-83
2023/02/24 05:33:22;;;;;;;17.23;5.88;;;;;;;;;;10374050;28;20112;-84
2023/02/24 05:38:22;;;;;;;18.83;6.28;;;;;;;;;;10380424;28;20717;-76
2023/02/24 05:43:25;;;;;;;14.00;5.78;;;;;;;;;;10374173;28;20022;-80
2023/02/24 05:48:27;;;;;;;8.63;4.85;;;;;;;;;;10365880;28;20029;-76
2023/02/24 05:53:29;;;;;;;11.15;5.40;;;;;;;;;;10400952;28;20156;-81
2023/02/24 05:58:29;;;;;;;12.68;6.10;;;;;;;;;;10374159;28;20041;-79
2023/02/24 06:03:29;;;;;;;11.53;5.37;;;;;;;;;;10391316;28;20030;-78
2023/02/24 06:08:40;;;;;;;13.85;6.40;;;;;;;;;;10384492;28;20073;-78
2023/02/24 06:13:46;;;;;;;12.95;5.78;;;;;;;;;;10384124;28;20025;-77
2023/02/24 06:18:47;;;;;;;12.05;6.38;;;;;;;;;;10390555;28;20029;-79
2023/02/24 06:23:47;;;;;;;10.68;5.95;;;;;;;;;;10435523;28;20021;-81
2023/02/24 06:28:51;;;;;;;17.25;6.43;;;;;;;;;;10392719;28;20029;-79
2023/02/24 06:33:52;;;;;;;11.68;6.53;;;;;;;;;;10388479;28;20540;-79
2023/02/24 06:38:52;;;;;;;13.57;6.20;;;;;;;;;;10385155;28;20904;-77
2023/02/24 06:43:52;;;;;;;13.27;6.07;;;;;;;;;;10365375;28;20027;-77
2023/02/24 06:48:56;;;;;;;16.33;5.75;;;;;;;;;;10378225;28;20033;-83
2023/02/24 06:54:01;;;;;;;16.58;7.53;;;;;;;;;;10374379;28;20033;-74
2023/02/24 06:59:03;;;;;;;18.40;6.60;;;;;;;;;;10391060;28;20037;-78
2023/02/24 07:04:23;;;;;;;13.38;7.28;;;;;;;;;;10407937;28;20420;-80
2023/02/24 07:09:25;;;;;;;24.25;7.13;;;;;;;;;;10405130;28;20527;-81
2023/02/24 07:14:26;;;;;;;18.77;7.22;;;;;;;;;;10375362;28;20025;-78
2023/02/24 07:19:43;;;;;;;28.27;10.38;;;;;;;;;;10411874;28;20380;-78
2023/02/24 07:24:45;;;;;;;12.88;6.78;;;;;;;;;;10377963;28;20064;-80
2023/02/24 07:29:45;;;;;;;28.52;10.30;;;;;;;;;;10390821;28;20029;-77
2023/02/24 07:34:45;;;;;;;18.00;7.72;;;;;;;;;;10364827;28;20419;-80
2023/02/24 07:40:00;;;;;;;18.10;7.65;;;;;;;;;;10387901;28;20053;-80
2023/02/24 07:45:03;;;;;;;21.65;6.95;;;;;;;;;;10390561;28;20429;-80
2023/02/24 07:50:09;;;;;;;25.52;8.40;;;;;;;;;;10389261;28;20087;-78
2023/02/24 07:55:14;;;;;;;34.22;9.32;;;;;;;;;;10386834;28;20203;-82
2023/02/24 08:00:18;;;;;;;26.02;8.88;;;;;;;;;;10402772;28;20037;-80
2023/02/24 08:05:20;;;;;;;26.58;9.40;;;;;;;;;;10388241;28;20574;-76
2023/02/24 08:10:25;;;;;;;22.05;9.38;;;;;;;;;;10400273;28;20073;-72
2023/02/24 08:15:32;;;;;;;19.70;9.32;;;;;;;;;;10370597;28;20080;-79
2023/02/24 08:20:50;;;;;;;29.48;9.82;;;;;;;;;;10405512;28;20028;-79
2023/02/24 08:25:50;;;;;;;25.55;9.27;;;;;;;;;;10372065;28;20029;-78
2023/02/24 08:30:50;;;;;;;17.43;7.87;;;;;;;;;;10386831;28;20487;-78
2023/02/24 08:35:51;;;;;;;14.38;6.90;;;;;;;;;;10401447;28;20113;-79
2023/02/24 08:40:54;;;;;;;16.27;7.15;;;;;;;;;;10387274;28;20028;-73
2023/02/24 08:46:36;;;;;;;26.20;9.05;;;;;;;;;;10409447;28;20043;-76
2023/02/24 08:51:34;;;;;;;30.10;9.23;;;;;;;;;;10386965;28;20050;-76
2023/02/24 08:56:35;;;;;;;22.88;8.43;;;;;;;;;;10381597;28;20489;-78
2023/02/24 09:01:39;;;;;;;24.27;8.98;;;;;;;;;;10361525;28;20022;-77
2023/02/24 09:06:47;;;;;;;20.13;8.35;;;;;;;;;;10377604;28;20087;-81
2023/02/24 09:11:48;;;;;;;18.40;8.00;;;;;;;;;;10372246;28;20025;-80
2023/02/24 09:17:01;;;;;;;17.73;7.57;;;;;;;;;;10365890;28;20407;-76
2023/02/24 09:22:13;;;;;;;16.70;6.95;;;;;;;;;;10361676;28;20084;-79
2023/02/24 09:27:16;;;;;;;13.10;5.97;;;;;;;;;;10378125;28;20061;-71
2023/02/24 09:32:16;;;;;;;22.70;7.93;;;;;;;;;;10362213;28;20037;-77
2023/02/24 09:37:26;;;;;;;15.75;6.85;;;;;;;;;;10377599;28;20036;-76
2023/02/24 09:42:57;;;;;;;13.73;6.85;;;;;;;;;;10363268;28;20026;-74
2023/02/24 09:48:00;;;;;;;13.63;7.40;;;;;;;;;;10369897;28;20164;-82
2023/02/24 09:53:12;;;;;;;20.10;8.38;;;;;;;;;;10355054;28;20068;-74
2023/02/24 09:58:28;;;;;;;13.90;6.45;;;;;;;;;;10346086;28;20115;-76
2023/02/24 10:03:41;;;;;;;12.18;7.03;;;;;;;;;;10359578;28;20061;-79
2023/02/24 10:08:48;;;;;;;17.45;8.93;;;;;;;;;;10369261;28;20067;-81
2023/02/24 10:13:51;;;;;;;13.63;7.70;;;;;;;;;;10369375;28;20029;-73
2023/02/24 10:19:13;;;;;;;15.50;7.90;;;;;;;;;;10368854;28;20030;-75
2023/02/24 10:24:18;;;;;;;22.58;8.98;;;;;;;;;;10366190;28;20017;-82
2023/02/24 10:29:33;;;;;;;15.45;7.22;;;;;;;;;;10362758;28;20029;-80
2023/02/24 10:34:34;;;;;;;18.40;8.52;;;;;;;;;;10386062;28;20064;-75
2023/02/24 10:39:35;;;;;;;18.23;8.93;;;;;;;;;;10372227;28;20030;-80
2023/02/24 10:44:35;;;;;;;19.15;8.95;;;;;;;;;;10351371;28;21134;-75
2023/02/24 10:49:55;;;;;;;16.92;8.40;;;;;;;;;;10359577;28;20116;-81
2023/02/24 10:55:26;;;;;;;21.67;9.82;;;;;;;;;;10367788;28;20075;-76
2023/02/24 11:00:47;;;;;;;18.73;8.60;;;;;;;;;;10382841;28;20033;-76
2023/02/24 11:17:13;;;;;;;21.38;8.52;;;;;;;;;;10385206;28;20120;-76
2023/02/24 11:22:13;;;;;;;18.13;7.63;;;;;;;;;;10382228;28;20034;-77
2023/02/24 11:27:15;;;;;;;16.40;6.70;;;;;;;;;;10363053;28;20410;-75
2023/02/24 11:32:42;;;;;;;12.18;6.80;;;;;;;;;;10360457;28;20037;-77
2023/02/24 11:37:48;;;;;;;13.35;7.05;;;;;;;;;;10366610;28;20037;-75
2023/02/24 11:42:57;;;;;;;14.57;7.10;;;;;;;;;;10350055;28;20116;-76
2023/02/24 11:48:00;;;;;;;16.75;7.43;;;;;;;;;;10341007;28;20499;-75
2023/02/24 11:53:03;;;;;;;16.33;7.55;;;;;;;;;;10364573;28;20403;-75
2023/02/24 11:58:13;;;;;;;14.90;8.02;;;;;;;;;;10386307;28;20026;-74
2023/02/24 12:03:21;;;;;;;20.80;8.82;;;;;;;;;;10369856;28;20032;-76
2023/02/24 12:08:25;;;;;;;16.75;8.13;;;;;;;;;;10369495;28;20049;-81
2023/02/24 12:13:44;;;;;;;21.88;9.10;;;;;;;;;;10362143;28;20022;-76
2023/02/24 12:18:47;;;;;;;18.63;8.85;;;;;;;;;;10381304;28;20029;-73
2023/02/24 12:23:50;;;;;;;16.15;9.18;;;;;;;;;;10368107;28;20038;-74
2023/02/24 12:29:09;;;;;;;17.88;8.68;;;;;;;;;;10367706;28;20026;-75
2023/02/24 12:34:33;;;;;;;22.17;9.30;;;;;;;;;;10355325;28;20096;-74
2023/02/24 12:39:41;;;;;;;17.45;8.85;;;;;;;;;;10377128;28;20448;-73
2023/02/24 12:44:56;;;;;;;20.15;9.02;;;;;;;;;;10357924;28;20021;-81
2023/02/24 12:50:00;;;;;;;21.58;9.02;;;;;;;;;;10379654;28;20035;-73
2023/02/24 12:55:04;;;;;;;21.75;10.65;;;;;;;;;;10356243;28;20452;-79
2023/02/24 13:00:12;;;;;;;23.38;10.32;;;;;;;;;;10385196;28;20025;-78
2023/02/24 13:05:19;;;;;;;23.77;9.60;;;;;;;;;;10384466;28;20029;-75
2023/02/24 13:10:36;;;;;;;23.35;9.73;;;;;;;;;;10386452;28;20061;-77
2023/02/24 13:15:47;;;;;;;27.40;10.65;;;;;;;;;;10401655;28;20535;-74
2023/02/24 13:20:49;;;;;;;25.75;10.00;;;;;;;;;;10382847;28;20488;-79
2023/02/24 13:25:50;;;;;;;23.75;10.13;;;;;;;;;;10383766;28;20090;-71
2023/02/24 13:31:17;;;;;;;20.35;10.18;;;;;;;;;;10373231;28;20041;-73
2023/02/24 13:36:22;;;;;;;20.60;9.20;;;;;;;;;;10363282;28;20124;-81
2023/02/24 13:41:33;;;;;;;25.65;8.88;;;;;;;;;;10383647;28;20056;-75
2023/02/24 13:46:48;;;;;;;19.80;10.40;;;;;;;;;;10383839;28;20049;-74
2023/02/24 13:51:54;;;;;;;23.35;8.77;;;;;;;;;;10382610;28;20053;-80
2023/02/24 13:57:00;;;;;;;25.47;9.87;;;;;;;;;;10402051;28;20125;-79
2023/02/24 14:02:20;;;;;;;17.77;9.27;;;;;;;;;;10381979;28;20377;-70
2023/02/24 14:07:25;;;;;;;29.23;13.15;;;;;;;;;;10381307;28;20099;-76
2023/02/24 14:12:33;;;;;;;22.70;11.23;;;;;;;;;;10389036;28;20033;-75
2023/02/24 14:17:35;;;;;;;35.47;14.35;;;;;;;;;;10389279;28;20022;-76
2023/02/24 14:23:02;;;;;;;27.65;15.52;;;;;;;;;;10406976;28;20030;-77
2023/02/24 14:28:03;;;;;;;36.67;15.95;;;;;;;;;;10383795;28;20036;-79
2023/02/24 14:33:05;;;;;;;31.73;12.95;;;;;;;;;;10407052;28;20037;-79
2023/02/24 14:38:06;;;;;;;25.20;12.27;;;;;;;;;;10389700;28;20025;-77
2023/02/24 14:43:12;;;;;;;34.72;14.07;;;;;;;;;;10388130;28;20513;-79
2023/02/24 14:48:31;;;;;;;40.33;14.73;;;;;;;;;;10409853;28;20503;-76
2023/02/24 14:53:32;;;;;;;27.83;14.38;;;;;;;;;;10391483;28;20396;-77
2023/02/24 14:58:41;;;;;;;40.55;18.80;;;;;;;;;;10372005;28;20025;-74
2023/02/24 15:03:45;;;;;;;51.33;19.00;;;;;;;;;;10372502;28;20105;-74
2023/02/24 15:08:47;;;;;;;35.85;19.20;;;;;;;;;;10406731;28;20107;-79
2023/02/24 15:13:53;;;;;;;35.00;16.75;;;;;;;;;;10363744;28;20030;-79
2023/02/24 15:18:55;;;;;;;44.58;19.38;;;;;;;;;;10361656;28;20077;-79
2023/02/24 15:24:00;;;;;;;42.33;20.75;;;;;;;;;;10363917;28;20018;-81
2023/02/24 15:29:18;;;;;;;45.92;20.65;;;;;;;;;;10379784;28;20026;-73
2023/02/24 15:34:23;;;;;;;46.77;21.07;;;;;;;;;;10354761;23;20105;-82
2023/02/24 15:39:26;;;;;;;51.70;22.83;;;;;;;;;;10349960;28;20034;-75
2023/02/24 15:44:28;;;;;;;45.25;20.35;;;;;;;;;;10327373;28;20037;-73
2023/02/24 15:49:28;;;;;;;51.30;21.67;;;;;;;;;;10351519;28;20022;-74
2023/02/24 15:54:34;;;;;;;46.65;21.10;;;;;;;;;;10369969;28;20025;-75
2023/02/24 15:59:34;;;;;;;51.90;21.52;;;;;;;;;;10322625;28;20498;-77
2023/02/24 16:04:35;;;;;;;46.30;20.73;;;;;;;;;;10337830;28;20472;-75
2023/02/24 16:09:38;;;;;;;49.88;21.80;;;;;;;;;;10332751;28;20044;-75
2023/02/24 16:14:38;;;;;;;51.72;22.70;;;;;;;;;;10361125;28;20034;-78
2023/02/24 16:19:39;;;;;;;48.53;21.55;;;;;;;;;;10337979;28;20034;-76
2023/02/24 16:24:40;;;;;;;49.78;20.45;;;;;;;;;;10323622;28;20044;-76
2023/02/24 16:29:40;;;;;;;50.88;19.95;;;;;;;;;;10317493;28;20033;-76
2023/02/24 16:34:40;;;;;;;44.73;19.87;;;;;;;;;;10381143;28;20061;-76
2023/02/24 16:39:41;;;;;;;43.93;19.17;;;;;;;;;;10358902;28;20863;-75
2023/02/24 16:44:41;;;;;;;51.33;20.02;;;;;;;;;;10364796;28;20515;-79
2023/02/24 16:49:42;;;;;;;41.65;19.23;;;;;;;;;;10346511;28;20154;-75
2023/02/24 16:54:42;;;;;;;56.50;21.60;;;;;;;;;;10346176;28;20602;-78
2023/02/24 16:59:42;;;;;;;44.58;20.80;;;;;;;;;;10348907;28;20025;-77
2023/02/24 17:04:43;;;;;;;59.25;21.98;;;;;;;;;;10367182;28;20084;-73
2023/02/24 17:09:43;;;;;;;48.00;20.67;;;;;;;;;;10360040;28;20101;-81
2023/02/24 17:14:43;;;;;;;58.35;22.23;;;;;;;;;;10352876;28;20110;-78
2023/02/24 17:19:43;;;;;;;49.80;23.95;;;;;;;;;;10361275;28;20037;-75
2023/02/24 17:24:44;;;;;;;59.25;22.05;;;;;;;;;;10343417;28;20474;-76
2023/02/24 17:29:44;;;;;;;47.33;21.95;;;;;;;;;;10351491;28;20139;-77
2023/02/24 17:34:44;;;;;;;76.90;27.77;;;;;;;;;;10355290;28;20046;-76
2023/02/24 17:39:44;;;;;;;81.55;33.28;;;;;;;;;;10357888;28;20671;-75
2023/02/24 17:44:46;;;;;;;86.03;35.50;;;;;;;;;;10360439;28;20385;-76
2023/02/24 17:49:46;;;;;;;71.93;33.35;;;;;;;;;;10374846;28;20489;-76
2023/02/24 17:54:46;;;;;;;51.80;24.47;;;;;;;;;;10367286;28;20117;-76
2023/02/24 17:59:47;;;;;;;46.80;24.05;;;;;;;;;;10382522;28;20279;-75
2023/02/24 18:04:55;;;;;;;42.25;19.42;;;;;;;;;;10353932;28;20018;-73
2023/02/24 18:09:58;;;;;;;49.45;22.95;;;;;;;;;;10363742;28;20037;-77
2023/02/24 18:15:00;;;;;;;53.05;22.80;;;;;;;;;;10364447;28;20109;-81
2023/02/24 18:20:01;;;;;;;38.35;20.45;;;;;;;;;;10366201;28;20538;-76
2023/02/24 18:25:01;;;;;;;42.30;18.53;;;;;;;;;;10337848;28;20176;-75
2023/02/24 18:30:17;;;;;;;59.90;23.37;;;;;;;;;;10374007;28;20033;-77
2023/02/24 18:35:20;;;;;;;55.83;22.27;;;;;;;;;;10350210;28;20053;-74
2023/02/24 18:40:25;;;;;;;50.60;22.42;;;;;;;;;;10351135;28;20040;-74
2023/02/24 18:45:25;;;;;;;44.30;21.73;;;;;;;;;;10338706;28;20037;-74
2023/02/24 18:50:25;;;;;;;52.60;20.35;;;;;;;;;;10369818;23;20042;-73
2023/02/24 18:55:25;;;;;;;41.67;19.25;;;;;;;;;;10352121;28;20025;-77
2023/02/24 19:00:27;;;;;;;41.67;20.15;;;;;;;;;;10372407;28;20030;-78
2023/02/24 19:05:28;;;;;;;45.90;19.80;;;;;;;;;;10371707;28;20044;-73
2023/02/24 19:10:28;;;;;;;45.75;20.65;;;;;;;;;;10361614;28;20770;-81
2023/02/24 19:15:28;;;;;;;50.15;20.13;;;;;;;;;;10374381;28;20037;-72
2023/02/24 19:20:28;;;;;;;46.22;20.17;;;;;;;;;;10360316;28;20583;-75
2023/02/24 19:25:29;;;;;;;40.78;18.98;;;;;;;;;;10374287;28;20487;-74
2023/02/24 19:30:30;;;;;;;44.88;21.27;;;;;;;;;;10373398;28;20526;-73
2023/02/24 19:35:30;;;;;;;50.40;21.42;;;;;;;;;;10381090;28;20384;-74
2023/02/24 19:40:31;;;;;;;36.60;19.37;;;;;;;;;;10368775;28;20029;-75
2023/02/24 19:45:31;;;;;;;47.53;20.08;;;;;;;;;;10351442;28;20126;-77
2023/02/24 19:50:32;;;;;;;51.50;20.43;;;;;;;;;;10360750;28;20064;-79
2023/02/24 19:55:32;;;;;;;53.33;22.50;;;;;;;;;;10365152;28;20036;-75
2023/02/24 20:00:32;;;;;;;45.92;20.90;;;;;;;;;;10367289;28;20107;-77
2023/02/24 20:05:34;;;;;;;47.50;19.17;;;;;;;;;;10365895;28;20026;-75
2023/02/24 20:10:34;;;;;;;44.90;20.38;;;;;;;;;;10357026;28;20029;-75
2023/02/24 20:15:35;;;;;;;41.50;20.23;;;;;;;;;;10381907;28;20523;-75
2023/02/24 20:20:35;;;;;;;37.60;19.53;;;;;;;;;;10368291;28;20385;-73
2023/02/24 20:25:36;;;;;;;47.58;21.08;;;;;;;;;;10377167;28;20025;-81
2023/02/24 20:30:37;;;;;;;43.08;19.13;;;;;;;;;;10371264;28;20033;-75
2023/02/24 20:35:40;;;;;;;40.65;19.48;;;;;;;;;;10369386;28;20025;-70
2023/02/24 20:40:42;;;;;;;42.95;19.45;;;;;;;;;;10364639;28;20570;-79
2023/02/24 20:45:42;;;;;;;44.17;18.35;;;;;;;;;;10391600;28;20025;-75
2023/02/24 20:50:43;;;;;;;39.53;18.73;;;;;;;;;;10383579;28;20062;-70
2023/02/24 20:55:44;;;;;;;37.75;18.90;;;;;;;;;;10403702;28;20075;-77
2023/02/24 21:00:44;;;;;;;38.03;20.17;;;;;;;;;;10382325;28;20372;-78
2023/02/24 21:05:44;;;;;;;39.73;20.17;;;;;;;;;;10380619;28;20018;-75
2023/02/24 21:10:48;;;;;;;39.10;20.38;;;;;;;;;;10403021;28;20095;-74
2023/02/24 21:15:51;;;;;;;48.72;22.77;;;;;;;;;;10393247;28;20041;-75
2023/02/24 21:20:52;;;;;;;43.10;21.30;;;;;;;;;;10378915;28;20105;-75
2023/02/24 21:25:53;;;;;;;41.50;19.75;;;;;;;;;;10374568;28;20029;-77
2023/02/24 21:30:53;;;;;;;48.03;20.42;;;;;;;;;;10358161;28;20029;-75
2023/02/24 21:36:02;;;;;;;44.53;21.38;;;;;;;;;;10411539;28;20641;-76
2023/02/24 21:41:04;;;;;;;42.78;19.55;;;;;;;;;;10366317;28;20034;-77
2023/02/24 21:46:05;;;;;;;43.13;19.73;;;;;;;;;;10366456;28;20029;-74
2023/02/24 21:51:08;;;;;;;44.55;20.15;;;;;;;;;;10351107;28;20046;-78
2023/02/24 21:56:18;;;;;;;39.85;17.90;;;;;;;;;;10359992;28;20056;-76
2023/02/24 22:01:23;;;;;;;35.92;18.35;;;;;;;;;;10369977;28;20028;-78
2023/02/24 22:06:25;;;;;;;41.63;18.13;;;;;;;;;;10357809;28;20504;-73
2023/02/24 22:11:26;;;;;;;39.80;18.15;;;;;;;;;;10343457;28;20180;-79
2023/02/24 22:16:26;;;;;;;38.42;18.52;;;;;;;;;;10366353;28;20125;-76
2023/02/24 22:21:27;;;;;;;43.00;19.90;;;;;;;;;;10378755;28;20021;-74
2023/02/24 22:26:29;;;;;;;38.20;18.83;;;;;;;;;;10383477;28;20018;-82
2023/02/24 22:31:32;;;;;;;42.72;16.92;;;;;;;;;;10386871;28;20087;-81
2023/02/24 22:36:39;;;;;;;42.20;20.05;;;;;;;;;;10408282;28;20010;-78
2023/02/24 22:41:39;;;;;;;42.65;20.83;;;;;;;;;;10372342;28;20066;-71
2023/02/24 22:46:44;;;;;;;48.95;23.70;;;;;;;;;;10379211;28;20017;-78
2023/02/24 22:51:47;;;;;;;48.97;23.58;;;;;;;;;;10377026;28;20053;-78
2023/02/24 22:56:47;;;;;;;57.17;24.42;;;;;;;;;;10360526;28;20092;-76
2023/02/24 23:01:48;;;;;;;43.80;20.93;;;;;;;;;;10360850;28;20116;-77
2023/02/24 23:06:53;;;;;;;46.77;21.60;;;;;;;;;;10394803;28;20459;-71
2023/02/24 23:11:54;;;;;;;51.50;22.63;;;;;;;;;;10341474;28;20104;-78
2023/02/24 23:16:54;;;;;;;58.13;24.05;;;;;;;;;;10368427;28;20029;-75
2023/02/24 23:21:55;;;;;;;50.77;23.10;;;;;;;;;;10386220;28;20049;-74
2023/02/24 23:26:56;;;;;;;56.15;23.00;;;;;;;;;;10389790;28;20282;-78
2023/02/24 23:31:58;;;;;;;52.53;24.13;;;;;;;;;;10374863;28;20403;-80
2023/02/24 23:36:58;;;;;;;50.42;22.77;;;;;;;;;;10399105;28;20112;-77
2023/02/24 23:41:58;;;;;;;53.00;22.52;;;;;;;;;;10386004;28;20072;-81
2023/02/24 23:47:00;;;;;;;43.53;20.83;;;;;;;;;;10392046;28;20028;-74
2023/02/24 23:52:00;;;;;;;53.08;23.38;;;;;;;;;;10384854;28;20045;-73
2023/02/24 23:57:00;;;;;;;43.28;22.10;;;;;;;;;;10401836;28;20021;-72
